sensor_id;sensor_type;location;lat;lon;timestamp;P1;durP1;ratioP1;P2;durP2;ratioP2
3259;SDS011;22469;48.150;14.004;2022-09-02T00:01:36;5.50;;;5.07;;
3259;SDS011;22469;48.150;14.004;2022-09-02T00:04:10;4.47;;;4.20;;
3259;SDS011;22469;48.150;14.004;2022-09-02T00:06:45;4.90;;;4.60;;
3259;SDS011;22469;48.150;14.004;2022-09-02T00:09:14;4.00;;;3.70;;
3259;SDS011;22469;48.150;14.004;2022-09-02T00:11:45;5.00;;;4.70;;
3259;SDS011;22469;48.150;14.004;2022-09-02T00:14:16;4.93;;;4.63;;
3259;SDS011;22469;48.150;14.004;2022-09-02T00:16:48;4.10;;;3.90;;
3259;SDS011;22469;48.150;14.004;2022-09-02T00:19:21;4.27;;;3.97;;
3259;SDS011;22469;48.150;14.004;2022-09-02T00:21:51;3.83;;;3.63;;
3259;SDS011;22469;48.150;14.004;2022-09-02T00:24:20;4.73;;;3.70;;
3259;SDS011;22469;48.150;14.004;2022-09-02T00:26:50;3.60;;;3.37;;
3259;SDS011;22469;48.150;14.004;2022-09-02T00:29:22;3.87;;;3.67;;
3259;SDS011;22469;48.150;14.004;2022-09-02T00:31:51;3.40;;;3.20;;
3259;SDS011;22469;48.150;14.004;2022-09-02T00:34:19;3.47;;;3.27;;
3259;SDS011;22469;48.150;14.004;2022-09-02T00:36:46;4.03;;;3.73;;
3259;SDS011;22469;48.150;14.004;2022-09-02T00:39:13;3.77;;;3.13;;
3259;SDS011;22469;48.150;14.004;2022-09-02T00:41:41;3.40;;;3.20;;
3259;SDS011;22469;48.150;14.004;2022-09-02T00:44:10;3.20;;;3.00;;
3259;SDS011;22469;48.150;14.004;2022-09-02T00:46:41;2.97;;;2.77;;
3259;SDS011;22469;48.150;14.004;2022-09-02T00:49:11;3.67;;;3.37;;
3259;SDS011;22469;48.150;14.004;2022-09-02T00:51:44;3.57;;;3.30;;
3259;SDS011;22469;48.150;14.004;2022-09-02T00:54:16;4.80;;;3.63;;
3259;SDS011;22469;48.150;14.004;2022-09-02T00:56:48;3.93;;;3.73;;
3259;SDS011;22469;48.150;14.004;2022-09-02T00:59:45;4.10;;;3.90;;
3259;SDS011;22469;48.150;14.004;2022-09-02T01:02:16;3.77;;;3.57;;
3259;SDS011;22469;48.150;14.004;2022-09-02T01:04:44;4.30;;;4.00;;
3259;SDS011;22469;48.150;14.004;2022-09-02T01:07:12;4.00;;;3.87;;
3259;SDS011;22469;48.150;14.004;2022-09-02T01:09:41;4.40;;;4.10;;
3259;SDS011;22469;48.150;14.004;2022-09-02T01:12:09;5.57;;;4.33;;
3259;SDS011;22469;48.150;14.004;2022-09-02T01:14:39;4.63;;;4.33;;
3259;SDS011;22469;48.150;14.004;2022-09-02T01:17:06;4.77;;;4.37;;
3259;SDS011;22469;48.150;14.004;2022-09-02T01:19:38;3.63;;;3.43;;
3259;SDS011;22469;48.150;14.004;2022-09-02T01:22:19;4.40;;;4.03;;
3259;SDS011;22469;48.150;14.004;2022-09-02T01:24:53;4.13;;;3.83;;
3259;SDS011;22469;48.150;14.004;2022-09-02T01:27:25;3.90;;;3.70;;
3259;SDS011;22469;48.150;14.004;2022-09-02T01:29:56;4.40;;;4.10;;
3259;SDS011;22469;48.150;14.004;2022-09-02T01:32:27;4.17;;;3.90;;
3259;SDS011;22469;48.150;14.004;2022-09-02T01:34:55;4.17;;;3.87;;
3259;SDS011;22469;48.150;14.004;2022-09-02T01:37:23;5.13;;;4.73;;
3259;SDS011;22469;48.150;14.004;2022-09-02T01:39:51;4.23;;;3.93;;
3259;SDS011;22469;48.150;14.004;2022-09-02T01:42:19;4.80;;;4.60;;
3259;SDS011;22469;48.150;14.004;2022-09-02T01:44:47;4.17;;;3.97;;
3259;SDS011;22469;48.150;14.004;2022-09-02T01:47:16;4.03;;;3.83;;
3259;SDS011;22469;48.150;14.004;2022-09-02T01:49:48;4.37;;;4.07;;
3259;SDS011;22469;48.150;14.004;2022-09-02T01:52:17;4.33;;;4.03;;
3259;SDS011;22469;48.150;14.004;2022-09-02T01:54:45;4.70;;;4.30;;
3259;SDS011;22469;48.150;14.004;2022-09-02T01:57:13;3.73;;;3.53;;
3259;SDS011;22469;48.150;14.004;2022-09-02T01:59:40;4.87;;;4.20;;
3259;SDS011;22469;48.150;14.004;2022-09-02T02:02:09;4.10;;;3.80;;
3259;SDS011;22469;48.150;14.004;2022-09-02T02:04:40;4.67;;;3.77;;
3259;SDS011;22469;48.150;14.004;2022-09-02T02:07:07;3.77;;;3.57;;
3259;SDS011;22469;48.150;14.004;2022-09-02T02:09:34;3.70;;;3.50;;
3259;SDS011;22469;48.150;14.004;2022-09-02T02:12:01;3.77;;;3.57;;
3259;SDS011;22469;48.150;14.004;2022-09-02T02:14:31;3.83;;;3.53;;
3259;SDS011;22469;48.150;14.004;2022-09-02T02:16:58;5.33;;;3.90;;
3259;SDS011;22469;48.150;14.004;2022-09-02T02:19:26;3.97;;;3.57;;
3259;SDS011;22469;48.150;14.004;2022-09-02T02:21:53;3.57;;;3.37;;
3259;SDS011;22469;48.150;14.004;2022-09-02T02:24:21;3.50;;;3.30;;
3259;SDS011;22469;48.150;14.004;2022-09-02T02:26:48;3.83;;;3.70;;
3259;SDS011;22469;48.150;14.004;2022-09-02T02:29:15;4.40;;;4.10;;
3259;SDS011;22469;48.150;14.004;2022-09-02T02:31:42;4.30;;;4.10;;
3259;SDS011;22469;48.150;14.004;2022-09-02T02:34:11;3.47;;;3.37;;
3259;SDS011;22469;48.150;14.004;2022-09-02T02:36:38;6.57;;;3.90;;
3259;SDS011;22469;48.150;14.004;2022-09-02T02:39:08;3.87;;;3.60;;
3259;SDS011;22469;48.150;14.004;2022-09-02T02:41:38;3.63;;;3.43;;
3259;SDS011;22469;48.150;14.004;2022-09-02T02:44:10;3.93;;;3.60;;
3259;SDS011;22469;48.150;14.004;2022-09-02T02:46:37;4.20;;;3.90;;
3259;SDS011;22469;48.150;14.004;2022-09-02T02:49:04;4.03;;;3.73;;
3259;SDS011;22469;48.150;14.004;2022-09-02T02:51:32;4.10;;;3.80;;
3259;SDS011;22469;48.150;14.004;2022-09-02T02:54:01;4.07;;;3.83;;
3259;SDS011;22469;48.150;14.004;2022-09-02T02:56:29;3.17;;;2.93;;
3259;SDS011;22469;48.150;14.004;2022-09-02T02:58:58;3.87;;;3.67;;
3259;SDS011;22469;48.150;14.004;2022-09-02T03:01:29;4.50;;;3.50;;
3259;SDS011;22469;48.150;14.004;2022-09-02T03:03:57;5.17;;;3.70;;
3259;SDS011;22469;48.150;14.004;2022-09-02T03:06:25;5.00;;;4.00;;
3259;SDS011;22469;48.150;14.004;2022-09-02T03:08:52;3.63;;;3.43;;
3259;SDS011;22469;48.150;14.004;2022-09-02T03:11:19;3.40;;;3.20;;
3259;SDS011;22469;48.150;14.004;2022-09-02T03:13:48;3.53;;;3.33;;
3259;SDS011;22469;48.150;14.004;2022-09-02T03:16:17;4.87;;;4.47;;
3259;SDS011;22469;48.150;14.004;2022-09-02T03:18:46;3.60;;;3.40;;
3259;SDS011;22469;48.150;14.004;2022-09-02T03:21:15;5.57;;;4.07;;
3259;SDS011;22469;48.150;14.004;2022-09-02T03:23:43;4.40;;;4.10;;
3259;SDS011;22469;48.150;14.004;2022-09-02T03:26:13;4.20;;;3.87;;
3259;SDS011;22469;48.150;14.004;2022-09-02T03:28:46;4.10;;;3.80;;
3259;SDS011;22469;48.150;14.004;2022-09-02T03:31:16;3.90;;;3.70;;
3259;SDS011;22469;48.150;14.004;2022-09-02T03:33:47;4.30;;;3.97;;
3259;SDS011;22469;48.150;14.004;2022-09-02T03:39:11;3.70;;;3.50;;
3259;SDS011;22469;48.150;14.004;2022-09-02T03:41:39;3.10;;;2.83;;
3259;SDS011;22469;48.150;14.004;2022-09-02T03:44:07;3.70;;;3.50;;
3259;SDS011;22469;48.150;14.004;2022-09-02T03:46:35;3.30;;;3.10;;
3259;SDS011;22469;48.150;14.004;2022-09-02T03:49:02;3.67;;;3.37;;
3259;SDS011;22469;48.150;14.004;2022-09-02T03:51:29;4.00;;;3.30;;
3259;SDS011;22469;48.150;14.004;2022-09-02T03:53:57;3.23;;;3.00;;
3259;SDS011;22469;48.150;14.004;2022-09-02T03:56:24;3.00;;;2.77;;
3259;SDS011;22469;48.150;14.004;2022-09-02T03:58:52;3.70;;;3.50;;
3259;SDS011;22469;48.150;14.004;2022-09-02T04:01:23;3.67;;;3.47;;
3259;SDS011;22469;48.150;14.004;2022-09-02T04:03:54;3.43;;;3.23;;
3259;SDS011;22469;48.150;14.004;2022-09-02T04:06:22;3.80;;;3.50;;
3259;SDS011;22469;48.150;14.004;2022-09-02T04:08:57;3.33;;;3.20;;
3259;SDS011;22469;48.150;14.004;2022-09-02T04:11:24;3.00;;;2.90;;
3259;SDS011;22469;48.150;14.004;2022-09-02T04:13:52;3.80;;;3.50;;
3259;SDS011;22469;48.150;14.004;2022-09-02T04:16:20;4.00;;;2.90;;
3259;SDS011;22469;48.150;14.004;2022-09-02T04:18:55;3.70;;;3.50;;
3259;SDS011;22469;48.150;14.004;2022-09-02T04:21:27;3.80;;;3.50;;
3259;SDS011;22469;48.150;14.004;2022-09-02T04:23:58;3.63;;;3.33;;
3259;SDS011;22469;48.150;14.004;2022-09-02T04:26:26;3.87;;;3.67;;
3259;SDS011;22469;48.150;14.004;2022-09-02T04:28:53;3.17;;;3.07;;
3259;SDS011;22469;48.150;14.004;2022-09-02T04:31:21;4.70;;;3.63;;
3259;SDS011;22469;48.150;14.004;2022-09-02T04:33:51;3.00;;;2.80;;
3259;SDS011;22469;48.150;14.004;2022-09-02T04:36:19;3.33;;;3.17;;
3259;SDS011;22469;48.150;14.004;2022-09-02T04:38:50;3.60;;;3.10;;
3259;SDS011;22469;48.150;14.004;2022-09-02T04:41:19;2.83;;;2.73;;
3259;SDS011;22469;48.150;14.004;2022-09-02T04:43:51;3.50;;;3.20;;
3259;SDS011;22469;48.150;14.004;2022-09-02T04:46:20;3.50;;;3.40;;
3259;SDS011;22469;48.150;14.004;2022-09-02T04:49:00;3.60;;;3.30;;
3259;SDS011;22469;48.150;14.004;2022-09-02T04:51:30;3.43;;;3.10;;
3259;SDS011;22469;48.150;14.004;2022-09-02T04:53:58;3.17;;;2.97;;
3259;SDS011;22469;48.150;14.004;2022-09-02T04:56:27;3.83;;;3.67;;
3259;SDS011;22469;48.150;14.004;2022-09-02T04:58:57;3.63;;;3.43;;
3259;SDS011;22469;48.150;14.004;2022-09-02T05:01:27;3.47;;;3.27;;
3259;SDS011;22469;48.150;14.004;2022-09-02T05:04:03;3.73;;;3.50;;
3259;SDS011;22469;48.150;14.004;2022-09-02T05:06:35;2.90;;;2.80;;
3259;SDS011;22469;48.150;14.004;2022-09-02T05:09:09;5.00;;;3.10;;
3259;SDS011;22469;48.150;14.004;2022-09-02T05:11:36;5.03;;;2.93;;
3259;SDS011;22469;48.150;14.004;2022-09-02T05:14:04;2.80;;;2.63;;
3259;SDS011;22469;48.150;14.004;2022-09-02T05:16:34;2.80;;;2.60;;
3259;SDS011;22469;48.150;14.004;2022-09-02T05:19:04;3.27;;;2.40;;
3259;SDS011;22469;48.150;14.004;2022-09-02T05:21:38;3.07;;;2.77;;
3259;SDS011;22469;48.150;14.004;2022-09-02T05:24:09;4.20;;;3.80;;
3259;SDS011;22469;48.150;14.004;2022-09-02T05:26:37;2.73;;;2.53;;
3259;SDS011;22469;48.150;14.004;2022-09-02T05:29:09;3.37;;;2.63;;
3259;SDS011;22469;48.150;14.004;2022-09-02T05:31:38;3.40;;;3.20;;
3259;SDS011;22469;48.150;14.004;2022-09-02T05:34:07;3.10;;;2.40;;
3259;SDS011;22469;48.150;14.004;2022-09-02T05:36:34;4.17;;;3.50;;
3259;SDS011;22469;48.150;14.004;2022-09-02T05:39:01;3.50;;;2.93;;
3259;SDS011;22469;48.150;14.004;2022-09-02T05:41:30;2.90;;;2.70;;
3259;SDS011;22469;48.150;14.004;2022-09-02T05:43:59;4.00;;;3.20;;
3259;SDS011;22469;48.150;14.004;2022-09-02T05:46:29;3.43;;;3.17;;
3259;SDS011;22469;48.150;14.004;2022-09-02T05:48:57;3.83;;;3.53;;
3259;SDS011;22469;48.150;14.004;2022-09-02T05:51:41;4.80;;;3.00;;
3259;SDS011;22469;48.150;14.004;2022-09-02T05:54:22;3.63;;;3.10;;
3259;SDS011;22469;48.150;14.004;2022-09-02T05:57:02;3.53;;;3.23;;
3259;SDS011;22469;48.150;14.004;2022-09-02T05:59:35;3.47;;;3.27;;
3259;SDS011;22469;48.150;14.004;2022-09-02T06:02:05;5.37;;;3.23;;
3259;SDS011;22469;48.150;14.004;2022-09-02T06:04:37;3.23;;;2.77;;
3259;SDS011;22469;48.150;14.004;2022-09-02T06:07:15;2.80;;;2.70;;
3259;SDS011;22469;48.150;14.004;2022-09-02T06:09:43;2.90;;;2.70;;
3259;SDS011;22469;48.150;14.004;2022-09-02T06:12:11;2.80;;;2.70;;
3259;SDS011;22469;48.150;14.004;2022-09-02T06:14:40;3.33;;;2.63;;
3259;SDS011;22469;48.150;14.004;2022-09-02T06:17:08;2.40;;;2.30;;
3259;SDS011;22469;48.150;14.004;2022-09-02T06:19:35;3.30;;;2.83;;
3259;SDS011;22469;48.150;14.004;2022-09-02T06:22:03;4.50;;;2.57;;
3259;SDS011;22469;48.150;14.004;2022-09-02T06:24:31;2.70;;;2.50;;
3259;SDS011;22469;48.150;14.004;2022-09-02T06:26:59;2.60;;;2.40;;
3259;SDS011;22469;48.150;14.004;2022-09-02T06:29:27;3.30;;;2.60;;
3259;SDS011;22469;48.150;14.004;2022-09-02T06:31:54;6.40;;;2.83;;
3259;SDS011;22469;48.150;14.004;2022-09-02T06:34:22;2.50;;;2.40;;
3259;SDS011;22469;48.150;14.004;2022-09-02T06:36:50;2.80;;;2.60;;
3259;SDS011;22469;48.150;14.004;2022-09-02T06:39:19;2.23;;;2.07;;
3259;SDS011;22469;48.150;14.004;2022-09-02T06:41:49;2.27;;;2.17;;
3259;SDS011;22469;48.150;14.004;2022-09-02T06:44:16;2.63;;;2.43;;
3259;SDS011;22469;48.150;14.004;2022-09-02T06:46:50;2.37;;;2.20;;
3259;SDS011;22469;48.150;14.004;2022-09-02T06:49:22;3.33;;;3.13;;
3259;SDS011;22469;48.150;14.004;2022-09-02T06:51:51;2.60;;;2.50;;
3259;SDS011;22469;48.150;14.004;2022-09-02T06:54:22;2.97;;;2.87;;
3259;SDS011;22469;48.150;14.004;2022-09-02T06:56:50;2.40;;;2.30;;
3259;SDS011;22469;48.150;14.004;2022-09-02T06:59:19;2.20;;;2.10;;
3259;SDS011;22469;48.150;14.004;2022-09-02T07:01:47;2.20;;;1.97;;
3259;SDS011;22469;48.150;14.004;2022-09-02T07:04:15;2.57;;;2.37;;
3259;SDS011;22469;48.150;14.004;2022-09-02T07:07:03;2.10;;;1.90;;
3259;SDS011;22469;48.150;14.004;2022-09-02T07:09:32;2.20;;;2.10;;
3259;SDS011;22469;48.150;14.004;2022-09-02T07:12:00;2.10;;;1.80;;
3259;SDS011;22469;48.150;14.004;2022-09-02T07:14:31;2.17;;;1.90;;
3259;SDS011;22469;48.150;14.004;2022-09-02T07:17:04;2.53;;;2.40;;
3259;SDS011;22469;48.150;14.004;2022-09-02T07:19:33;3.67;;;1.83;;
3259;SDS011;22469;48.150;14.004;2022-09-02T07:22:01;2.37;;;2.17;;
3259;SDS011;22469;48.150;14.004;2022-09-02T07:24:30;1.83;;;1.73;;
3259;SDS011;22469;48.150;14.004;2022-09-02T07:26:57;2.20;;;2.10;;
3259;SDS011;22469;48.150;14.004;2022-09-02T07:29:24;2.20;;;2.10;;
3259;SDS011;22469;48.150;14.004;2022-09-02T07:31:51;4.17;;;2.00;;
3259;SDS011;22469;48.150;14.004;2022-09-02T07:34:19;1.87;;;1.77;;
3259;SDS011;22469;48.150;14.004;2022-09-02T07:36:46;2.23;;;2.10;;
3259;SDS011;22469;48.150;14.004;2022-09-02T07:39:14;2.67;;;2.47;;
3259;SDS011;22469;48.150;14.004;2022-09-02T07:41:44;5.33;;;1.90;;
3259;SDS011;22469;48.150;14.004;2022-09-02T07:44:14;2.10;;;2.00;;
3259;SDS011;22469;48.150;14.004;2022-09-02T07:46:43;2.00;;;1.90;;
3259;SDS011;22469;48.150;14.004;2022-09-02T07:49:13;2.20;;;2.10;;
3259;SDS011;22469;48.150;14.004;2022-09-02T07:51:43;2.23;;;2.00;;
3259;SDS011;22469;48.150;14.004;2022-09-02T07:54:15;2.20;;;1.80;;
3259;SDS011;22469;48.150;14.004;2022-09-02T07:56:46;2.00;;;1.80;;
3259;SDS011;22469;48.150;14.004;2022-09-02T07:59:15;2.27;;;1.97;;
3259;SDS011;22469;48.150;14.004;2022-09-02T08:01:43;1.80;;;1.70;;
3259;SDS011;22469;48.150;14.004;2022-09-02T08:04:11;1.33;;;1.33;;
3259;SDS011;22469;48.150;14.004;2022-09-02T08:06:39;2.73;;;2.53;;
3259;SDS011;22469;48.150;14.004;2022-09-02T08:09:07;2.93;;;1.93;;
3259;SDS011;22469;48.150;14.004;2022-09-02T08:11:41;2.63;;;2.10;;
3259;SDS011;22469;48.150;14.004;2022-09-02T08:14:14;1.50;;;1.50;;
3259;SDS011;22469;48.150;14.004;2022-09-02T08:16:51;2.00;;;1.90;;
3259;SDS011;22469;48.150;14.004;2022-09-02T08:19:20;1.60;;;1.60;;
3259;SDS011;22469;48.150;14.004;2022-09-02T08:21:49;2.00;;;1.80;;
3259;SDS011;22469;48.150;14.004;2022-09-02T08:24:17;1.40;;;1.30;;
3259;SDS011;22469;48.150;14.004;2022-09-02T08:26:44;1.80;;;1.70;;
3259;SDS011;22469;48.150;14.004;2022-09-02T08:29:11;1.60;;;1.50;;
3259;SDS011;22469;48.150;14.004;2022-09-02T08:31:38;1.47;;;1.37;;
3259;SDS011;22469;48.150;14.004;2022-09-02T08:34:05;1.33;;;1.20;;
3259;SDS011;22469;48.150;14.004;2022-09-02T08:36:32;1.50;;;1.43;;
3259;SDS011;22469;48.150;14.004;2022-09-02T08:39:03;2.10;;;1.10;;
3259;SDS011;22469;48.150;14.004;2022-09-02T08:44:22;2.50;;;1.47;;
3259;SDS011;22469;48.150;14.004;2022-09-02T08:46:51;2.03;;;1.53;;
3259;SDS011;22469;48.150;14.004;2022-09-02T08:49:25;2.30;;;1.50;;
3259;SDS011;22469;48.150;14.004;2022-09-02T08:52:01;2.03;;;1.77;;
3259;SDS011;22469;48.150;14.004;2022-09-02T08:54:32;1.67;;;1.57;;
3259;SDS011;22469;48.150;14.004;2022-09-02T08:57:28;1.53;;;1.23;;
3259;SDS011;22469;48.150;14.004;2022-09-02T08:59:57;1.93;;;1.80;;
3259;SDS011;22469;48.150;14.004;2022-09-02T09:09:21;1.57;;;1.53;;
3259;SDS011;22469;48.150;14.004;2022-09-02T09:12:12;1.20;;;1.20;;
3259;SDS011;22469;48.150;14.004;2022-09-02T09:15:04;1.10;;;1.00;;
3259;SDS011;22469;48.150;14.004;2022-09-02T09:17:53;1.07;;;1.07;;
3259;SDS011;22469;48.150;14.004;2022-09-02T09:20:32;4.03;;;1.20;;
3259;SDS011;22469;48.150;14.004;2022-09-02T09:25:49;1.53;;;1.20;;
3259;SDS011;22469;48.150;14.004;2022-09-02T09:28:22;1.20;;;1.20;;
3259;SDS011;22469;48.150;14.004;2022-09-02T09:30:50;1.60;;;1.17;;
3259;SDS011;22469;48.150;14.004;2022-09-02T09:33:17;1.30;;;1.20;;
3259;SDS011;22469;48.150;14.004;2022-09-02T09:35:52;1.93;;;1.53;;
3259;SDS011;22469;48.150;14.004;2022-09-02T09:38:28;0.90;;;0.90;;
3259;SDS011;22469;48.150;14.004;2022-09-02T09:41:13;1.00;;;1.00;;
3259;SDS011;22469;48.150;14.004;2022-09-02T09:43:45;1.30;;;1.30;;
3259;SDS011;22469;48.150;14.004;2022-09-02T09:48:51;1.27;;;1.20;;
3259;SDS011;22469;48.150;14.004;2022-09-02T09:51:18;1.63;;;1.53;;
3259;SDS011;22469;48.150;14.004;2022-09-02T09:53:45;0.87;;;0.87;;
3259;SDS011;22469;48.150;14.004;2022-09-02T10:07:11;1.50;;;1.40;;
3259;SDS011;22469;48.150;14.004;2022-09-02T10:09:39;1.33;;;1.30;;
3259;SDS011;22469;48.150;14.004;2022-09-02T10:12:07;0.97;;;0.97;;
3259;SDS011;22469;48.150;14.004;2022-09-02T10:36:32;1.07;;;0.93;;
3259;SDS011;22469;48.150;14.004;2022-09-02T10:39:18;0.80;;;0.80;;
3259;SDS011;22469;48.150;14.004;2022-09-02T10:45:49;1.30;;;1.20;;
3259;SDS011;22469;48.150;14.004;2022-09-02T10:54:06;1.63;;;1.20;;
3259;SDS011;22469;48.150;14.004;2022-09-02T10:57:00;1.00;;;1.00;;
3259;SDS011;22469;48.150;14.004;2022-09-02T11:05:03;0.90;;;0.90;;
3259;SDS011;22469;48.150;14.004;2022-09-02T11:16:05;1.30;;;1.20;;
3259;SDS011;22469;48.150;14.004;2022-09-02T11:27:30;1.20;;;1.10;;
3259;SDS011;22469;48.150;14.004;2022-09-02T11:30:44;1.20;;;1.10;;
3259;SDS011;22469;48.150;14.004;2022-09-02T11:33:33;1.20;;;1.00;;
3259;SDS011;22469;48.150;14.004;2022-09-02T11:36:09;1.03;;;1.03;;
3259;SDS011;22469;48.150;14.004;2022-09-02T11:38:49;1.80;;;1.10;;
3259;SDS011;22469;48.150;14.004;2022-09-02T11:44:50;1.33;;;0.97;;
3259;SDS011;22469;48.150;14.004;2022-09-02T11:47:41;1.00;;;0.90;;
3259;SDS011;22469;48.150;14.004;2022-09-02T11:58:47;1.37;;;1.13;;
3259;SDS011;22469;48.150;14.004;2022-09-02T12:09:48;0.93;;;0.93;;
3259;SDS011;22469;48.150;14.004;2022-09-02T12:20:08;2.03;;;1.00;;
3259;SDS011;22469;48.150;14.004;2022-09-02T12:22:57;1.33;;;1.33;;
3259;SDS011;22469;48.150;14.004;2022-09-02T12:36:04;1.17;;;1.07;;
3259;SDS011;22469;48.150;14.004;2022-09-02T12:38:40;1.03;;;0.93;;
3259;SDS011;22469;48.150;14.004;2022-09-02T12:41:10;1.27;;;1.23;;
3259;SDS011;22469;48.150;14.004;2022-09-02T12:46:59;1.00;;;1.00;;
3259;SDS011;22469;48.150;14.004;2022-09-02T12:52:49;1.20;;;1.20;;
3259;SDS011;22469;48.150;14.004;2022-09-02T13:10:26;1.10;;;1.00;;
3259;SDS011;22469;48.150;14.004;2022-09-02T13:31:24;2.17;;;0.90;;
3259;SDS011;22469;48.150;14.004;2022-09-02T13:34:08;1.30;;;1.20;;
3259;SDS011;22469;48.150;14.004;2022-09-02T13:36:44;0.93;;;0.90;;
3259;SDS011;22469;48.150;14.004;2022-09-02T13:41:43;1.00;;;1.00;;
3259;SDS011;22469;48.150;14.004;2022-09-02T13:44:11;0.83;;;0.80;;
3259;SDS011;22469;48.150;14.004;2022-09-02T13:46:53;1.00;;;1.00;;
3259;SDS011;22469;48.150;14.004;2022-09-02T13:49:41;1.00;;;1.00;;
3259;SDS011;22469;48.150;14.004;2022-09-02T13:52:21;4.20;;;1.20;;
3259;SDS011;22469;48.150;14.004;2022-09-02T13:55:10;1.93;;;0.90;;
3259;SDS011;22469;48.150;14.004;2022-09-02T13:57:44;1.50;;;0.80;;
3259;SDS011;22469;48.150;14.004;2022-09-02T14:00:53;1.30;;;0.90;;
3259;SDS011;22469;48.150;14.004;2022-09-02T14:03:15;1.23;;;1.07;;
3259;SDS011;22469;48.150;14.004;2022-09-02T14:05:47;1.10;;;1.00;;
3259;SDS011;22469;48.150;14.004;2022-09-02T14:08:19;0.90;;;0.90;;
3259;SDS011;22469;48.150;14.004;2022-09-02T14:10:49;1.00;;;0.90;;
3259;SDS011;22469;48.150;14.004;2022-09-02T14:13:19;1.23;;;1.20;;
3259;SDS011;22469;48.150;14.004;2022-09-02T14:15:47;0.90;;;0.90;;
3259;SDS011;22469;48.150;14.004;2022-09-02T14:21:13;1.43;;;1.00;;
3259;SDS011;22469;48.150;14.004;2022-09-02T14:23:50;1.43;;;1.20;;
3259;SDS011;22469;48.150;14.004;2022-09-02T14:26:30;1.00;;;1.00;;
3259;SDS011;22469;48.150;14.004;2022-09-02T14:29:04;1.23;;;1.20;;
3259;SDS011;22469;48.150;14.004;2022-09-02T14:31:33;1.30;;;1.17;;
3259;SDS011;22469;48.150;14.004;2022-09-02T14:34:00;1.30;;;1.30;;
3259;SDS011;22469;48.150;14.004;2022-09-02T14:36:31;1.30;;;0.97;;
3259;SDS011;22469;48.150;14.004;2022-09-02T14:39:14;2.20;;;1.20;;
3259;SDS011;22469;48.150;14.004;2022-09-02T14:41:48;1.00;;;1.00;;
3259;SDS011;22469;48.150;14.004;2022-09-02T14:44:31;1.33;;;1.03;;
3259;SDS011;22469;48.150;14.004;2022-09-02T14:47:05;1.03;;;1.03;;
3259;SDS011;22469;48.150;14.004;2022-09-02T14:49:46;1.10;;;1.00;;
3259;SDS011;22469;48.150;14.004;2022-09-02T14:52:18;1.20;;;1.20;;
3259;SDS011;22469;48.150;14.004;2022-09-02T14:54:49;1.17;;;1.07;;
3259;SDS011;22469;48.150;14.004;2022-09-02T15:00:08;3.17;;;1.03;;
3259;SDS011;22469;48.150;14.004;2022-09-02T15:02:40;1.37;;;0.90;;
3259;SDS011;22469;48.150;14.004;2022-09-02T15:05:12;3.33;;;1.20;;
3259;SDS011;22469;48.150;14.004;2022-09-02T15:07:42;0.90;;;0.90;;
3259;SDS011;22469;48.150;14.004;2022-09-02T15:10:12;1.40;;;1.27;;
3259;SDS011;22469;48.150;14.004;2022-09-02T15:12:49;1.00;;;1.00;;
3259;SDS011;22469;48.150;14.004;2022-09-02T15:15:20;1.00;;;1.00;;
3259;SDS011;22469;48.150;14.004;2022-09-02T15:17:47;1.00;;;1.00;;
3259;SDS011;22469;48.150;14.004;2022-09-02T15:20:14;2.20;;;1.00;;
3259;SDS011;22469;48.150;14.004;2022-09-02T15:22:41;2.60;;;1.07;;
3259;SDS011;22469;48.150;14.004;2022-09-02T15:25:08;1.33;;;1.33;;
3259;SDS011;22469;48.150;14.004;2022-09-02T15:27:35;1.37;;;1.17;;
3259;SDS011;22469;48.150;14.004;2022-09-02T15:30:04;1.73;;;1.20;;
3259;SDS011;22469;48.150;14.004;2022-09-02T15:32:37;1.00;;;1.00;;
3259;SDS011;22469;48.150;14.004;2022-09-02T15:35:04;1.00;;;1.00;;
3259;SDS011;22469;48.150;14.004;2022-09-02T15:37:33;0.97;;;0.97;;
3259;SDS011;22469;48.150;14.004;2022-09-02T15:40:03;3.43;;;1.10;;
3259;SDS011;22469;48.150;14.004;2022-09-02T15:42:33;0.90;;;0.90;;
3259;SDS011;22469;48.150;14.004;2022-09-02T15:45:03;0.80;;;0.80;;
3259;SDS011;22469;48.150;14.004;2022-09-02T15:47:34;1.13;;;0.97;;
3259;SDS011;22469;48.150;14.004;2022-09-02T15:50:05;1.40;;;1.30;;
3259;SDS011;22469;48.150;14.004;2022-09-02T15:52:33;1.60;;;1.00;;
3259;SDS011;22469;48.150;14.004;2022-09-02T15:55:01;3.93;;;1.00;;
3259;SDS011;22469;48.150;14.004;2022-09-02T15:57:29;2.40;;;0.80;;
3259;SDS011;22469;48.150;14.004;2022-09-02T15:59:56;1.50;;;1.50;;
3259;SDS011;22469;48.150;14.004;2022-09-02T16:02:23;1.37;;;1.27;;
3259;SDS011;22469;48.150;14.004;2022-09-02T16:04:50;1.10;;;1.10;;
3259;SDS011;22469;48.150;14.004;2022-09-02T16:07:17;1.20;;;1.10;;
3259;SDS011;22469;48.150;14.004;2022-09-02T16:09:44;1.10;;;1.10;;
3259;SDS011;22469;48.150;14.004;2022-09-02T16:12:11;1.57;;;1.10;;
3259;SDS011;22469;48.150;14.004;2022-09-02T16:14:38;1.77;;;1.00;;
3259;SDS011;22469;48.150;14.004;2022-09-02T16:17:06;3.13;;;1.30;;
3259;SDS011;22469;48.150;14.004;2022-09-02T16:19:36;1.20;;;1.10;;
3259;SDS011;22469;48.150;14.004;2022-09-02T16:22:03;1.07;;;1.07;;
3259;SDS011;22469;48.150;14.004;2022-09-02T16:24:30;1.13;;;1.00;;
3259;SDS011;22469;48.150;14.004;2022-09-02T16:26:57;1.10;;;1.00;;
3259;SDS011;22469;48.150;14.004;2022-09-02T16:29:24;1.10;;;1.10;;
3259;SDS011;22469;48.150;14.004;2022-09-02T16:31:53;0.90;;;0.90;;
3259;SDS011;22469;48.150;14.004;2022-09-02T16:34:41;1.27;;;1.17;;
3259;SDS011;22469;48.150;14.004;2022-09-02T16:37:08;0.90;;;0.90;;
3259;SDS011;22469;48.150;14.004;2022-09-02T16:39:36;2.00;;;0.90;;
3259;SDS011;22469;48.150;14.004;2022-09-02T16:42:03;0.90;;;0.90;;
3259;SDS011;22469;48.150;14.004;2022-09-02T16:44:31;0.97;;;0.97;;
3259;SDS011;22469;48.150;14.004;2022-09-02T16:46:59;1.10;;;1.10;;
3259;SDS011;22469;48.150;14.004;2022-09-02T16:49:26;1.10;;;1.10;;
3259;SDS011;22469;48.150;14.004;2022-09-02T16:51:53;1.17;;;1.17;;
3259;SDS011;22469;48.150;14.004;2022-09-02T16:54:24;1.20;;;1.20;;
3259;SDS011;22469;48.150;14.004;2022-09-02T16:56:58;1.67;;;1.00;;
3259;SDS011;22469;48.150;14.004;2022-09-02T16:59:26;1.00;;;0.90;;
3259;SDS011;22469;48.150;14.004;2022-09-02T17:01:53;1.20;;;1.17;;
3259;SDS011;22469;48.150;14.004;2022-09-02T17:04:21;1.00;;;0.90;;
3259;SDS011;22469;48.150;14.004;2022-09-02T17:06:48;1.10;;;1.10;;
3259;SDS011;22469;48.150;14.004;2022-09-02T17:09:15;1.23;;;1.10;;
3259;SDS011;22469;48.150;14.004;2022-09-02T17:11:42;1.37;;;1.37;;
3259;SDS011;22469;48.150;14.004;2022-09-02T17:14:12;2.30;;;1.03;;
3259;SDS011;22469;48.150;14.004;2022-09-02T17:16:45;1.53;;;1.43;;
3259;SDS011;22469;48.150;14.004;2022-09-02T17:19:15;1.17;;;1.07;;
3259;SDS011;22469;48.150;14.004;2022-09-02T17:21:48;1.10;;;1.10;;
3259;SDS011;22469;48.150;14.004;2022-09-02T17:24:21;1.13;;;1.13;;
3259;SDS011;22469;48.150;14.004;2022-09-02T17:26:53;1.10;;;1.10;;
3259;SDS011;22469;48.150;14.004;2022-09-02T17:29:23;1.67;;;1.30;;
3259;SDS011;22469;48.150;14.004;2022-09-02T17:32:15;1.40;;;1.30;;
3259;SDS011;22469;48.150;14.004;2022-09-02T17:34:43;1.67;;;1.20;;
3259;SDS011;22469;48.150;14.004;2022-09-02T17:37:11;1.40;;;1.30;;
3259;SDS011;22469;48.150;14.004;2022-09-02T17:39:38;1.37;;;1.30;;
3259;SDS011;22469;48.150;14.004;2022-09-02T17:42:06;1.50;;;1.40;;
3259;SDS011;22469;48.150;14.004;2022-09-02T17:44:34;2.10;;;1.67;;
3259;SDS011;22469;48.150;14.004;2022-09-02T17:49:36;1.70;;;1.60;;
3259;SDS011;22469;48.150;14.004;2022-09-02T17:52:04;1.63;;;1.30;;
3259;SDS011;22469;48.150;14.004;2022-09-02T17:54:34;1.30;;;1.30;;
3259;SDS011;22469;48.150;14.004;2022-09-02T18:05:38;1.67;;;1.47;;
3259;SDS011;22469;48.150;14.004;2022-09-02T18:08:12;1.77;;;1.67;;
3259;SDS011;22469;48.150;14.004;2022-09-02T18:10:50;1.00;;;1.00;;
3259;SDS011;22469;48.150;14.004;2022-09-02T18:13:29;1.33;;;1.23;;